Main page
METAR-TAF:

METAR-TAF

Airports :

Curaçao International Airport

Curaçao, Netherlands Antilles

latitude: 12-12N, longitude: 068-58W, elevation: 9 m

Current weather observation

The report was made 30 minutes ago, at 06:00 UTC
Wind 8 kt from the East/Southeast
Temperature 25°C
Humidity 79%
Pressure 1012 hPa
Visibility 10 km or more
Scattered clouds at a height of 1900 ft

METAR: TNCC 210600Z 12008KT 9999 SCT019 25/21 Q1012 NOSIG

Time: 02:30 (06:30 UTC)

Forecast

The report was made 2 hours and 30 minutes ago, at 04:00 UTC
Forecast valid from 21 at 06 UTC to 22 at 06 UTC
Wind 12 kt from the East
Visibility 10 km or more
Few clouds at a height of 1800 ft

TAF: TNCC 210400Z 2106/2206 10012KT 9999 FEW018

Weather observations and forecasts of more than 4000 airports (METAR and TAF reports).

The available stations are represented by yellow and red dots on the map.

Hover mouse over dot to see the name of the station.

Then click to see weather observations and forecasts.

To change the map : click on the green buttons with a black cross to zoom in, on the green button with a dash to zoom out, or on the green arrows for adjacent maps.


METAR-TAF: